createdAt,value
2018-09-13T00:02:03.520Z,15.13
2018-09-13T00:04:31.529Z,14.63
2018-09-13T00:06:59.487Z,15.28
2018-09-13T00:09:30.217Z,11.55
2018-09-13T00:11:58.142Z,10.37
2018-09-13T00:14:26.050Z,14.17
2018-09-13T00:16:54.096Z,13.20
2018-09-13T00:19:22.014Z,11.73
2018-09-13T00:21:49.929Z,16.63
2018-09-13T00:24:17.853Z,11.73
2018-09-13T00:26:48.763Z,13.60
2018-09-13T00:29:16.713Z,15.07
2018-09-13T00:31:44.659Z,18.07
2018-09-13T00:34:12.636Z,12.20
2018-09-13T00:36:40.570Z,12.77
2018-09-13T00:39:09.736Z,15.93
2018-09-13T00:41:38.161Z,11.67
2018-09-13T00:44:06.251Z,13.37
2018-09-13T00:46:34.591Z,10.30
2018-09-13T00:49:02.639Z,12.30
2018-09-13T00:51:30.668Z,12.50
2018-09-13T00:53:58.656Z,13.93
2018-09-13T00:56:26.643Z,12.23
2018-09-13T00:58:54.646Z,12.03
2018-09-13T01:01:22.649Z,13.53
2018-09-13T01:03:50.565Z,12.80
2018-09-13T01:06:18.658Z,15.37
2018-09-13T01:08:46.661Z,14.37
2018-09-13T01:11:14.582Z,13.07
2018-09-13T01:13:42.836Z,13.80
2018-09-13T01:16:10.769Z,12.53
2018-09-13T01:18:38.713Z,11.93
2018-09-13T01:21:06.711Z,12.47
2018-09-13T01:23:34.682Z,15.23
2018-09-13T01:26:02.985Z,12.90
2018-09-13T01:28:30.887Z,12.53
2018-09-13T01:30:58.769Z,13.67
2018-09-13T01:33:26.646Z,12.77
2018-09-13T01:35:56.313Z,16.17
2018-09-13T01:38:24.237Z,11.23
2018-09-13T01:40:52.119Z,14.03
2018-09-13T01:43:20.029Z,13.17
2018-09-13T01:45:47.899Z,15.67
2018-09-13T01:48:15.970Z,12.20
2018-09-13T01:50:43.871Z,13.33
2018-09-13T01:53:11.838Z,12.80
2018-09-13T01:55:39.696Z,13.43
2018-09-13T01:58:07.734Z,13.93
2018-09-13T02:00:35.694Z,14.00
2018-09-13T02:03:03.839Z,12.30
2018-09-13T02:05:31.767Z,13.40
2018-09-13T02:07:59.813Z,12.63
2018-09-13T02:10:27.863Z,14.23
2018-09-13T02:12:55.742Z,12.90
2018-09-13T02:15:23.614Z,11.63
2018-09-13T02:17:51.629Z,12.40
2018-09-13T02:20:19.583Z,14.17
2018-09-13T02:22:47.516Z,13.23
2018-09-13T02:25:15.402Z,16.70
2018-09-13T02:27:43.284Z,19.47
2018-09-13T02:30:11.220Z,13.33
2018-09-13T02:32:39.191Z,14.00
2018-09-13T02:35:07.231Z,17.63
2018-09-13T02:37:35.190Z,17.57
2018-09-13T02:40:03.208Z,13.40
2018-09-13T02:42:31.179Z,14.27
2018-09-13T02:44:59.050Z,12.70
2018-09-13T02:47:26.941Z,13.73
2018-09-13T02:49:55.094Z,16.80
2018-09-13T02:52:23.105Z,12.87
2018-09-13T02:54:51.215Z,12.17
2018-09-13T02:57:19.153Z,10.63
2018-09-13T02:59:47.355Z,13.60
2018-09-13T03:02:15.363Z,11.27
2018-09-13T03:04:43.549Z,14.43
2018-09-13T03:07:11.458Z,12.10
2018-09-13T03:09:39.320Z,12.47
2018-09-13T03:12:07.277Z,12.47
2018-09-13T03:14:35.266Z,14.07
2018-09-13T03:17:03.189Z,12.90
2018-09-13T03:19:31.102Z,14.43
2018-09-13T03:21:59.080Z,14.43
2018-09-13T03:24:26.991Z,15.10
2018-09-13T03:26:54.981Z,13.63
2018-09-13T03:29:23.091Z,13.80
2018-09-13T03:31:50.986Z,15.77
2018-09-13T03:34:18.981Z,16.33
2018-09-13T03:36:46.856Z,16.37
2018-09-13T03:39:14.756Z,14.90
2018-09-13T03:41:42.816Z,16.73
2018-09-13T03:44:10.861Z,16.57
2018-09-13T03:46:38.792Z,16.37
2018-09-13T03:49:06.720Z,15.73
2018-09-13T03:51:34.662Z,15.27
2018-09-13T03:54:02.654Z,16.70
2018-09-13T03:56:30.557Z,15.97
2018-09-13T03:58:58.700Z,14.47
2018-09-13T04:01:26.592Z,17.83
2018-09-13T04:03:54.623Z,16.07
2018-09-13T04:06:22.658Z,17.23
2018-09-13T04:08:50.724Z,15.90
2018-09-13T04:11:18.662Z,17.23
2018-09-13T04:13:46.871Z,18.60
2018-09-13T04:16:14.744Z,14.80
2018-09-13T04:18:42.646Z,16.27
2018-09-13T04:21:10.498Z,20.43
2018-09-13T04:23:38.452Z,14.00
2018-09-13T04:26:06.345Z,15.03
2018-09-13T04:28:34.526Z,16.37
2018-09-13T04:31:02.504Z,14.67
2018-09-13T04:33:30.342Z,14.87
2018-09-13T04:35:58.300Z,17.93
2018-09-13T04:38:26.243Z,14.27
2018-09-13T04:40:54.234Z,17.63
2018-09-13T04:43:22.311Z,15.20
2018-09-13T04:45:50.385Z,16.67
2018-09-13T04:48:19.252Z,15.17
2018-09-13T04:50:47.146Z,20.17
2018-09-13T04:53:15.196Z,19.87
2018-09-13T04:55:43.195Z,15.43
2018-09-13T04:58:11.133Z,14.53
2018-09-13T05:00:39.193Z,20.57
2018-09-13T05:03:07.133Z,15.23
2018-09-13T05:05:35.036Z,16.70
2018-09-13T05:08:03.058Z,19.77
2018-09-13T05:10:30.995Z,16.43
2018-09-13T05:12:58.991Z,18.13
2018-09-13T05:15:26.946Z,16.17
2018-09-13T05:17:54.982Z,18.13
2018-09-13T05:20:24.372Z,15.63
2018-09-13T05:22:52.383Z,18.50
2018-09-13T05:25:20.434Z,16.93
2018-09-13T05:27:48.396Z,16.63
2018-09-13T05:30:16.442Z,17.67
2018-09-13T05:32:44.470Z,19.33
2018-09-13T05:35:12.428Z,18.63
2018-09-13T05:37:40.969Z,17.23
2018-09-13T05:40:08.913Z,20.17
2018-09-13T05:42:36.851Z,24.83
2018-09-13T05:45:04.956Z,17.63
2018-09-13T05:47:32.829Z,21.93
2018-09-13T05:50:00.860Z,26.97
2018-09-13T05:52:28.782Z,18.93
2018-09-13T05:54:57.119Z,19.13
2018-09-13T05:57:25.079Z,23.33
2018-09-13T05:59:53.126Z,23.50
2018-09-13T06:02:21.047Z,26.33
2018-09-13T06:04:49.376Z,27.33
2018-09-13T06:07:17.947Z,25.23
2018-09-13T06:09:46.256Z,23.20
2018-09-13T06:12:14.324Z,26.00
2018-09-13T06:14:42.806Z,24.47
2018-09-13T06:17:10.898Z,23.73
2018-09-13T06:19:38.950Z,21.77
2018-09-13T06:22:07.907Z,23.17
2018-09-13T06:24:36.036Z,21.27
2018-09-13T06:27:07.001Z,17.30
2018-09-13T06:29:37.364Z,19.23
2018-09-13T06:32:05.475Z,20.17
2018-09-13T06:34:33.490Z,19.17
2018-09-13T06:37:01.609Z,27.57
2018-09-13T06:39:29.869Z,18.33
2018-09-13T06:41:57.801Z,24.70
2018-09-13T06:44:25.741Z,21.20
2018-09-13T06:46:54.084Z,19.70
2018-09-13T06:49:21.966Z,20.20
2018-09-13T06:51:50.868Z,21.93
2018-09-13T06:54:19.734Z,18.33
2018-09-13T06:56:47.649Z,18.20
2018-09-13T06:59:17.028Z,18.53
2018-09-13T07:01:45.064Z,17.97
2018-09-13T07:04:16.194Z,18.07
2018-09-13T07:06:45.243Z,21.00
2018-09-13T07:09:14.485Z,19.80
2018-09-13T07:11:43.450Z,17.70
2018-09-13T07:14:11.757Z,19.63
2018-09-13T07:16:39.765Z,15.63
2018-09-13T07:19:09.056Z,14.87
2018-09-13T07:21:37.334Z,13.07
2018-09-13T07:24:05.365Z,14.93
2018-09-13T07:26:33.323Z,23.10
2018-09-13T07:29:01.410Z,26.57
2018-09-13T07:31:29.534Z,14.93
2018-09-13T07:33:57.498Z,18.23
2018-09-13T07:36:25.545Z,15.93
2018-09-13T07:38:53.402Z,16.17
2018-09-13T07:41:22.414Z,22.93
2018-09-13T07:43:50.374Z,25.27
2018-09-13T07:46:21.398Z,16.43
2018-09-13T07:48:49.413Z,12.87
2018-09-13T07:51:17.372Z,12.37
2018-09-13T07:53:47.531Z,14.10
2018-09-13T07:56:15.928Z,12.83
2018-09-13T07:58:43.939Z,11.67
2018-09-13T08:01:14.930Z,11.00
2018-09-13T08:03:43.241Z,15.07
2018-09-13T08:06:12.195Z,10.87
2018-09-13T08:08:40.139Z,10.20
2018-09-13T08:11:08.172Z,10.87
2018-09-13T08:13:36.218Z,14.73
2018-09-13T08:16:04.260Z,15.87
2018-09-13T08:18:32.551Z,15.17
2018-09-13T08:21:00.535Z,13.03
2018-09-13T08:23:28.702Z,13.10
2018-09-13T08:25:56.782Z,16.40
2018-09-13T08:28:24.931Z,11.40
2018-09-13T08:30:53.620Z,13.03
2018-09-13T08:33:22.586Z,11.30
2018-09-13T08:35:50.533Z,13.83
2018-09-13T08:38:18.652Z,8.03
2018-09-13T08:40:48.822Z,7.80
2018-09-13T08:43:16.826Z,8.77
2018-09-13T08:45:44.946Z,10.53
2018-09-13T08:48:13.478Z,8.73
2018-09-13T08:50:41.496Z,9.03
2018-09-13T08:53:11.369Z,8.83
2018-09-13T08:55:40.089Z,10.40
2018-09-13T08:58:08.644Z,8.63
2018-09-13T09:00:36.913Z,7.23
2018-09-13T09:03:05.473Z,8.45
2018-09-13T09:05:33.856Z,7.57
2018-09-13T09:08:02.567Z,12.23
2018-09-13T09:10:30.975Z,10.87
2018-09-13T09:12:58.807Z,8.37
2018-09-13T09:15:27.281Z,10.90
2018-09-13T09:17:56.397Z,8.43
2018-09-13T09:20:24.508Z,8.30
2018-09-13T09:22:52.586Z,12.37
2018-09-13T09:25:32.052Z,12.57
2018-09-13T09:28:00.353Z,12.00
2018-09-13T09:30:29.009Z,9.13
2018-09-13T09:32:59.005Z,11.47
2018-09-13T09:35:29.337Z,9.57
2018-09-13T09:37:57.415Z,11.83
2018-09-13T09:40:25.518Z,12.47
2018-09-13T09:43:19.343Z,8.80
2018-09-13T09:45:47.516Z,8.27
2018-09-13T09:48:17.928Z,8.13
2018-09-13T09:50:45.942Z,8.80
2018-09-13T09:53:14.041Z,8.30
2018-09-13T09:55:42.206Z,8.10
2018-09-13T09:58:11.187Z,10.60
2018-09-13T10:00:44.523Z,9.47
2018-09-13T10:03:18.861Z,8.50
2018-09-13T10:05:47.771Z,8.17
2018-09-13T10:08:15.903Z,9.87
2018-09-13T10:10:44.094Z,9.57
2018-09-13T10:13:12.078Z,9.37
2018-09-13T10:15:45.307Z,10.03
2018-09-13T10:18:18.880Z,6.63
2018-09-13T10:20:52.346Z,7.87
2018-09-13T10:23:25.678Z,7.17
2018-09-13T10:25:59.084Z,7.83
2018-09-13T10:28:33.265Z,7.90
2018-09-13T10:31:06.758Z,6.47
2018-09-13T10:33:40.279Z,8.03
2018-09-13T10:36:15.455Z,7.10
2018-09-13T10:38:48.947Z,6.43
2018-09-13T10:41:22.304Z,8.23
2018-09-13T10:43:55.684Z,8.47
2018-09-13T10:46:25.056Z,5.90
2018-09-13T10:48:58.421Z,6.20
2018-09-13T10:51:32.453Z,7.07
2018-09-13T10:54:06.062Z,6.03
2018-09-13T10:56:34.181Z,8.20
2018-09-13T10:59:02.611Z,5.17
2018-09-13T11:01:31.006Z,6.87
2018-09-13T11:03:59.204Z,5.80
2018-09-13T11:06:27.873Z,5.83
2018-09-13T11:08:56.097Z,8.20
2018-09-13T11:11:24.282Z,5.30
2018-09-13T11:14:00.589Z,7.37
2018-09-13T11:16:28.662Z,6.97
2018-09-13T11:18:56.630Z,4.93
2018-09-13T11:21:25.125Z,5.20
2018-09-13T11:23:53.154Z,4.17
2018-09-13T11:26:21.223Z,4.27
2018-09-13T11:28:49.512Z,4.77
2018-09-13T11:31:17.537Z,5.47
2018-09-13T11:33:46.361Z,4.83
2018-09-13T11:36:16.515Z,4.80
2018-09-13T11:38:44.838Z,4.47
2018-09-13T11:41:13.313Z,3.97
2018-09-13T11:43:43.128Z,4.60
2018-09-13T11:46:11.268Z,4.47
2018-09-13T11:48:39.339Z,4.50
2018-09-13T11:51:07.434Z,5.23
2018-09-13T11:53:35.517Z,4.23
2018-09-13T11:56:03.838Z,4.43
2018-09-13T11:58:31.983Z,4.60
2018-09-13T12:01:00.352Z,9.00
2018-09-13T12:03:30.079Z,8.47
2018-09-13T12:05:58.138Z,6.53
2018-09-13T12:08:32.599Z,9.90
2018-09-13T12:11:03.912Z,6.23
2018-09-13T12:14:00.568Z,5.47
2018-09-13T12:16:30.524Z,7.67
2018-09-13T12:19:05.769Z,5.77
2018-09-13T12:21:38.514Z,5.20
2018-09-13T12:24:11.471Z,4.83
2018-09-13T12:26:46.632Z,6.37
2018-09-13T12:29:16.255Z,5.17
2018-09-13T12:31:45.859Z,11.47
2018-09-13T12:34:14.228Z,6.17
2018-09-13T12:36:42.630Z,7.10
2018-09-13T12:39:13.323Z,5.73
2018-09-13T12:41:43.445Z,6.13
2018-09-13T12:44:12.590Z,5.03
2018-09-13T12:46:40.934Z,6.00
2018-09-13T12:49:10.262Z,8.00
2018-09-13T12:51:38.252Z,7.57
2018-09-13T12:54:06.327Z,5.00
2018-09-13T12:56:34.357Z,3.90
2018-09-13T12:59:02.498Z,3.83
2018-09-13T13:01:30.787Z,6.23
2018-09-13T13:03:59.130Z,5.60
2018-09-13T13:06:27.326Z,4.47
2018-09-13T13:08:55.377Z,3.93
2018-09-13T13:11:23.764Z,5.23
2018-09-13T13:13:51.930Z,4.33
2018-09-13T13:16:20.529Z,7.43
2018-09-13T13:18:48.732Z,3.80
2018-09-13T13:21:16.842Z,3.87
2018-09-13T13:23:45.107Z,6.07
2018-09-13T13:26:15.048Z,3.60
2018-09-13T13:28:43.679Z,4.07
2018-09-13T13:31:17.257Z,3.57
2018-09-13T13:33:45.295Z,3.57
2018-09-13T13:36:15.544Z,3.40
2018-09-13T13:38:45.371Z,4.00
2018-09-13T13:41:14.310Z,4.03
2018-09-13T13:43:42.458Z,3.80
2018-09-13T13:46:10.519Z,4.33
2018-09-13T13:48:39.027Z,4.43
2018-09-13T13:51:07.049Z,5.53
2018-09-13T13:53:35.948Z,6.43
2018-09-13T13:56:03.943Z,5.37
2018-09-13T13:58:31.918Z,5.43
2018-09-13T14:00:59.972Z,6.27
2018-09-13T14:03:28.248Z,4.00
2018-09-13T14:05:57.039Z,4.10
2018-09-13T14:08:26.009Z,4.53
2018-09-13T14:10:58.448Z,6.10
2018-09-13T14:13:26.522Z,6.40
2018-09-13T14:15:54.485Z,4.40
2018-09-13T14:18:22.500Z,4.70
2018-09-13T14:20:50.596Z,5.07
2018-09-13T14:23:18.585Z,4.20
2018-09-13T14:25:50.906Z,5.83
2018-09-13T14:28:19.010Z,3.67
2018-09-13T14:30:47.838Z,5.77
2018-09-13T14:33:15.816Z,4.90
2018-09-13T14:35:44.226Z,6.67
2018-09-13T14:38:12.570Z,10.27
2018-09-13T14:40:40.966Z,5.30
2018-09-13T14:43:09.067Z,5.67
2018-09-13T14:45:37.285Z,7.00
2018-09-13T14:48:05.756Z,6.03
2018-09-13T14:50:33.825Z,6.20
2018-09-13T14:53:01.882Z,6.60
2018-09-13T14:55:29.897Z,7.10
2018-09-13T14:57:58.159Z,11.30
2018-09-13T15:00:26.039Z,8.17
2018-09-13T15:02:54.109Z,9.37
2018-09-13T15:05:22.239Z,6.87
2018-09-13T15:07:50.163Z,6.37
2018-09-13T15:10:18.146Z,4.57
2018-09-13T15:12:46.483Z,4.90
2018-09-13T15:15:15.206Z,5.40
2018-09-13T15:17:43.193Z,6.20
2018-09-13T15:20:11.248Z,4.97
2018-09-13T15:22:40.206Z,4.03
2018-09-13T15:25:08.263Z,6.87
2018-09-13T15:27:36.126Z,5.30
2018-09-13T15:30:04.559Z,7.13
2018-09-13T15:32:32.583Z,5.83
2018-09-13T15:35:00.612Z,5.40
2018-09-13T15:37:28.584Z,8.23
2018-09-13T15:39:57.282Z,4.57
2018-09-13T15:42:25.839Z,4.53
2018-09-13T15:44:54.196Z,6.30
2018-09-13T15:47:22.783Z,5.37
2018-09-13T15:49:51.158Z,7.63
2018-09-13T15:52:19.184Z,5.80
2018-09-13T15:54:47.431Z,5.90
2018-09-13T15:57:16.973Z,5.47
2018-09-13T15:59:45.436Z,6.10
2018-09-13T16:02:13.561Z,5.60
2018-09-13T16:04:41.596Z,7.17
2018-09-13T16:07:09.745Z,5.23
2018-09-13T16:09:37.730Z,7.23
2018-09-13T16:12:05.670Z,4.60
2018-09-13T16:14:33.824Z,5.43
2018-09-13T16:17:01.748Z,7.03
2018-09-13T16:19:29.772Z,7.37
2018-09-13T16:21:57.813Z,6.80
2018-09-13T16:24:25.750Z,10.27
2018-09-13T16:29:26.725Z,7.57
2018-09-13T16:31:54.874Z,6.03
2018-09-13T16:34:22.841Z,9.30
2018-09-13T16:36:58.482Z,7.43
2018-09-13T16:39:31.665Z,6.40
2018-09-13T16:42:05.106Z,7.43
2018-09-13T16:44:38.558Z,9.10
2018-09-13T16:47:12.034Z,6.47
2018-09-13T16:49:40.360Z,5.87
2018-09-13T16:52:08.974Z,5.90
2018-09-13T16:54:36.954Z,5.97
2018-09-13T16:57:05.045Z,7.63
2018-09-13T16:59:33.152Z,6.87
2018-09-13T17:02:01.106Z,5.50
2018-09-13T17:04:29.071Z,6.97
2018-09-13T17:06:57.029Z,7.50
2018-09-13T17:09:25.203Z,6.10
2018-09-13T17:11:53.282Z,9.33
2018-09-13T17:14:21.301Z,7.03
2018-09-13T17:16:49.549Z,7.97
2018-09-13T17:19:17.503Z,9.20
2018-09-13T17:21:45.472Z,8.43
2018-09-13T17:24:13.421Z,6.50
2018-09-13T17:26:41.514Z,8.93
2018-09-13T17:29:09.738Z,10.37
2018-09-13T17:31:37.755Z,10.70
2018-09-13T17:34:05.767Z,19.10
2018-09-13T17:36:33.649Z,12.37
2018-09-13T17:39:01.580Z,12.33
2018-09-13T17:41:29.514Z,10.53
2018-09-13T17:43:57.538Z,9.97
2018-09-13T17:46:25.529Z,10.90
2018-09-13T17:48:53.503Z,10.70
2018-09-13T17:51:21.374Z,8.97
2018-09-13T17:53:49.325Z,9.50
2018-09-13T17:56:17.274Z,7.50
2018-09-13T17:58:45.245Z,12.13
2018-09-13T18:01:13.397Z,8.23
2018-09-13T18:03:41.535Z,7.13
2018-09-13T18:06:09.869Z,9.23
2018-09-13T18:08:38.161Z,9.23
2018-09-13T18:11:06.098Z,9.70
2018-09-13T18:13:34.066Z,9.80
2018-09-13T18:16:02.014Z,9.63
2018-09-13T18:18:30.574Z,8.00
2018-09-13T18:20:59.203Z,9.73
2018-09-13T18:23:27.218Z,10.93
2018-09-13T18:25:55.734Z,11.57
2018-09-13T18:28:23.738Z,7.77
2018-09-13T18:30:51.688Z,6.83
2018-09-13T18:33:19.584Z,7.07
2018-09-13T18:35:47.491Z,8.03
2018-09-13T18:38:15.413Z,6.80
2018-09-13T18:40:43.268Z,7.77
2018-09-13T18:43:11.255Z,12.60
2018-09-13T18:45:39.284Z,8.93
2018-09-13T18:48:07.554Z,11.43
2018-09-13T18:50:36.435Z,9.13
2018-09-13T18:53:04.416Z,9.13
2018-09-13T18:55:32.440Z,9.87
2018-09-13T18:58:00.416Z,8.13
2018-09-13T19:00:28.335Z,10.30
2018-09-13T19:02:56.336Z,6.47
2018-09-13T19:05:24.349Z,6.60
2018-09-13T19:07:52.387Z,8.90
2018-09-13T19:10:20.423Z,7.73
2018-09-13T19:12:48.456Z,6.87
2018-09-13T19:15:16.401Z,7.30
2018-09-13T19:17:44.400Z,10.33
2018-09-13T19:20:12.406Z,9.27
2018-09-13T19:22:40.278Z,8.40
2018-09-13T19:25:08.210Z,8.73
2018-09-13T19:27:37.012Z,9.93
2018-09-13T19:30:05.080Z,8.13
2018-09-13T19:32:33.235Z,7.00
2018-09-13T19:35:01.182Z,7.90
2018-09-13T19:37:29.113Z,9.27
2018-09-13T19:39:57.070Z,9.13
2018-09-13T19:42:25.228Z,7.07
2018-09-13T19:44:53.184Z,9.50
2018-09-13T19:47:21.179Z,8.07
2018-09-13T19:49:49.366Z,7.27
2018-09-13T19:52:17.315Z,9.07
2018-09-13T19:54:45.627Z,6.87
2018-09-13T19:57:13.649Z,7.33
2018-09-13T19:59:42.217Z,6.93
2018-09-13T20:02:10.116Z,6.47
2018-09-13T20:04:38.222Z,6.03
2018-09-13T20:07:06.233Z,7.67
2018-09-13T20:09:34.130Z,6.20
2018-09-13T20:12:02.128Z,6.57
2018-09-13T20:14:29.995Z,6.47
2018-09-13T20:16:58.007Z,5.90
2018-09-13T20:19:26.737Z,5.90
2018-09-13T20:21:54.626Z,6.20
2018-09-13T20:24:22.569Z,7.17
2018-09-13T20:26:50.481Z,5.77
2018-09-13T20:29:18.388Z,6.23
2018-09-13T20:31:46.338Z,5.97
2018-09-13T20:34:14.475Z,6.30
2018-09-13T20:36:42.424Z,6.57
2018-09-13T20:39:11.139Z,5.40
2018-09-13T20:41:39.321Z,7.37
2018-09-13T20:44:08.272Z,6.03
2018-09-13T20:46:36.249Z,7.53
2018-09-13T20:49:04.707Z,6.23
2018-09-13T20:51:56.918Z,7.37
2018-09-13T20:54:25.086Z,5.27
2018-09-13T20:56:53.087Z,7.13
2018-09-13T20:59:21.036Z,6.33
2018-09-13T21:01:48.947Z,6.33
2018-09-13T21:04:16.882Z,5.83
2018-09-13T21:06:44.882Z,5.83
2018-09-13T21:09:12.902Z,5.57
2018-09-13T21:11:41.190Z,6.37
2018-09-13T21:14:10.337Z,6.30
2018-09-13T21:16:38.368Z,6.43
2018-09-13T21:19:06.982Z,6.07
2018-09-13T21:21:35.027Z,5.93
2018-09-13T21:24:03.854Z,5.70
2018-09-13T21:26:35.486Z,6.50
2018-09-13T21:29:03.421Z,6.03
2018-09-13T21:31:31.437Z,6.03
2018-09-13T21:33:59.381Z,6.93
2018-09-13T21:36:33.972Z,7.53
2018-09-13T21:39:02.528Z,9.43
2018-09-13T21:41:31.431Z,7.33
2018-09-13T21:44:01.826Z,6.73
2018-09-13T21:46:29.715Z,6.83
2018-09-13T21:48:57.654Z,5.97
2018-09-13T21:51:25.607Z,6.43
2018-09-13T21:53:53.923Z,7.90
2018-09-13T21:56:22.827Z,6.63
2018-09-13T21:58:52.988Z,6.83
2018-09-13T22:01:20.949Z,5.57
2018-09-13T22:03:48.858Z,6.17
2018-09-13T22:06:17.631Z,7.13
2018-09-13T22:08:45.966Z,5.93
2018-09-13T22:11:14.910Z,6.50
2018-09-13T22:13:43.108Z,6.37
2018-09-13T22:16:11.106Z,6.27
2018-09-13T22:18:38.999Z,6.40
2018-09-13T22:21:07.065Z,8.97
2018-09-13T22:23:34.983Z,7.60
2018-09-13T22:26:03.209Z,8.07
2018-09-13T22:28:31.160Z,9.33
2018-09-13T22:31:00.167Z,8.33
2018-09-13T22:33:28.090Z,7.57
2018-09-13T22:35:56.129Z,8.83
2018-09-13T22:38:24.309Z,8.13
2018-09-13T22:40:55.354Z,9.03
2018-09-13T22:43:23.513Z,7.80
2018-09-13T22:45:51.550Z,8.17
2018-09-13T22:48:19.623Z,6.60
2018-09-13T22:50:48.231Z,8.63
2018-09-13T22:53:16.185Z,6.20
2018-09-13T22:55:44.097Z,6.50
2018-09-13T22:58:12.040Z,6.13
2018-09-13T23:00:39.955Z,6.20
2018-09-13T23:03:07.994Z,8.17
2018-09-13T23:05:35.935Z,8.97
2018-09-13T23:08:03.930Z,5.63
2018-09-13T23:10:31.825Z,5.27
2018-09-13T23:12:59.776Z,5.67
2018-09-13T23:15:27.707Z,6.00
2018-09-13T23:17:55.737Z,5.17
2018-09-13T23:20:23.618Z,6.27
2018-09-13T23:22:51.543Z,6.00
2018-09-13T23:25:19.555Z,7.43
2018-09-13T23:27:48.116Z,6.27
2018-09-13T23:30:16.247Z,6.50
2018-09-13T23:32:44.125Z,6.57
2018-09-13T23:35:12.182Z,7.03
2018-09-13T23:37:40.112Z,6.93
2018-09-13T23:40:08.329Z,6.27
2018-09-13T23:42:36.245Z,6.90
2018-09-13T23:45:04.429Z,7.90
2018-09-13T23:47:32.256Z,6.63
2018-09-13T23:50:00.279Z,6.93
2018-09-13T23:52:28.385Z,7.87
2018-09-13T23:54:56.267Z,6.80
2018-09-13T23:57:24.287Z,9.87
2018-09-13T23:59:52.265Z,10.03
